ETH3MD FZAA-FOOL
Flight info
| Callsign | ETH3MD |
|---|---|
| Flight time | 1h 13m |
| Altitude | 36000 |
| Route | BZ UG856 NAVTO DITKA1A |
| Aircraft | MD11/H-SDE1E2E3FGHIJ2J3J4J5M1RWXY/LB1D1 |
Departure
| Time | 2026-04-18 07:50 |
|---|---|
| Airport | Ndjili International Airport (FZAA) |
Arrival
| Time | 2026-04-18 09:04 |
|---|---|
| Airport | Libreville Leon M'ba International Airport (FOOL) |
| Time | Latitude | Longitude | Altitude | Speed | Heading |
|---|---|---|---|---|---|
| 2026-04-18 07:26 | -4.38973 | 15.44309 | 1033 ft | 0 kts | 146° |
| 2026-04-18 07:39 | -4.38967 | 15.44305 | 1033 ft | 2 kts | 146° |
| 2026-04-18 07:39 | -4.38954 | 15.44296 | 1032 ft | 2 kts | 146° |
| 2026-04-18 07:39 | -4.38945 | 15.44290 | 1032 ft | 2 kts | 143° |
| 2026-04-18 07:40 | -4.38935 | 15.44279 | 1032 ft | 2 kts | 118° |
| 2026-04-18 07:40 | -4.38929 | 15.44265 | 1032 ft | 2 kts | 99° |
| 2026-04-18 07:40 | -4.38929 | 15.44249 | 1032 ft | 2 kts | 78° |
| 2026-04-18 07:40 | -4.38934 | 15.44236 | 1032 ft | 1 kts | 60° |
| 2026-04-18 07:41 | -4.38937 | 15.44231 | 1032 ft | 0 kts | 57° |
| 2026-04-18 07:42 | -4.38936 | 15.44232 | 1032 ft | 0 kts | 57° |
| 2026-04-18 07:43 | -4.38912 | 15.44270 | 1032 ft | 14 kts | 57° |
| 2026-04-18 07:43 | -4.38845 | 15.44374 | 1030 ft | 18 kts | 57° |
| 2026-04-18 07:43 | -4.38780 | 15.44476 | 1030 ft | 15 kts | 57° |
| 2026-04-18 07:43 | -4.38724 | 15.44563 | 1031 ft | 13 kts | 57° |
| 2026-04-18 07:44 | -4.38671 | 15.44645 | 1031 ft | 14 kts | 57° |
| 2026-04-18 07:44 | -4.38615 | 15.44732 | 1031 ft | 15 kts | 57° |
| 2026-04-18 07:44 | -4.38555 | 15.44828 | 1030 ft | 15 kts | 58° |
| 2026-04-18 07:44 | -4.38506 | 15.44900 | 1030 ft | 6 kts | 38° |
| 2026-04-18 07:45 | -4.38471 | 15.44905 | 1030 ft | 5 kts | 349° |
| 2026-04-18 07:45 | -4.38415 | 15.44883 | 1028 ft | 11 kts | 330° |
| 2026-04-18 07:45 | -4.38340 | 15.44852 | 1026 ft | 9 kts | 2° |
| 2026-04-18 07:45 | -4.38295 | 15.44881 | 1026 ft | 9 kts | 47° |
| 2026-04-18 07:46 | -4.38236 | 15.44957 | 1025 ft | 18 kts | 53° |
| 2026-04-18 07:46 | -4.38146 | 15.45088 | 1023 ft | 26 kts | 58° |
| 2026-04-18 07:46 | -4.38049 | 15.45252 | 1021 ft | 26 kts | 59° |
| 2026-04-18 07:46 | -4.37955 | 15.45401 | 1019 ft | 23 kts | 58° |
| 2026-04-18 07:47 | -4.37873 | 15.45529 | 1016 ft | 18 kts | 57° |
| 2026-04-18 07:47 | -4.37834 | 15.45625 | 1015 ft | 13 kts | 84° |
| 2026-04-18 07:47 | -4.37821 | 15.45704 | 1015 ft | 7 kts | 68° |
| 2026-04-18 07:47 | -4.37793 | 15.45738 | 1015 ft | 5 kts | 15° |
| 2026-04-18 07:48 | -4.37774 | 15.45735 | 1015 ft | 1 kts | 325° |
| 2026-04-18 07:48 | -4.37766 | 15.45725 | 1014 ft | 1 kts | 303° |
| 2026-04-18 07:48 | -4.37764 | 15.45718 | 1014 ft | 1 kts | 278° |
| 2026-04-18 07:48 | -4.37766 | 15.45710 | 1014 ft | 1 kts | 245° |
| 2026-04-18 07:49 | -4.37766 | 15.45709 | 1014 ft | 0 kts | 244° |
| 2026-04-18 07:49 | -4.37788 | 15.45670 | 1014 ft | 27 kts | 239° |
| 2026-04-18 07:49 | -4.38053 | 15.45260 | 1021 ft | 108 kts | 237° |
| 2026-04-18 07:50 | -4.38594 | 15.44425 | 1026 ft | 173 kts | 237° |
| 2026-04-18 07:50 | -4.39295 | 15.43328 | 1445 ft | 187 kts | 237° |
| 2026-04-18 07:50 | -4.40006 | 15.42221 | 2098 ft | 191 kts | 237° |
| 2026-04-18 07:50 | -4.40722 | 15.41118 | 2852 ft | 194 kts | 236° |
| 2026-04-18 07:51 | -4.41526 | 15.39892 | 3148 ft | 222 kts | 236° |
| 2026-04-18 07:51 | -4.42427 | 15.38518 | 3421 ft | 249 kts | 236° |
| 2026-04-18 07:51 | -4.43426 | 15.36987 | 3855 ft | 268 kts | 237° |
| 2026-04-18 07:51 | -4.44467 | 15.35389 | 3956 ft | 275 kts | 237° |
| 2026-04-18 07:52 | -4.45541 | 15.33740 | 3976 ft | 277 kts | 237° |
| 2026-04-18 07:52 | -4.46600 | 15.32114 | 4486 ft | 281 kts | 237° |
| 2026-04-18 07:52 | -4.47669 | 15.30472 | 5419 ft | 284 kts | 237° |
| 2026-04-18 07:52 | -4.48771 | 15.28781 | 6253 ft | 291 kts | 237° |
| 2026-04-18 07:53 | -4.49893 | 15.27060 | 7067 ft | 296 kts | 237° |
| 2026-04-18 07:53 | -4.51023 | 15.25323 | 7853 ft | 302 kts | 238° |
| 2026-04-18 07:53 | -4.51824 | 15.23386 | 8542 ft | 306 kts | 263° |
| 2026-04-18 07:53 | -4.51772 | 15.21249 | 9230 ft | 305 kts | 288° |
| 2026-04-18 07:54 | -4.50876 | 15.19379 | 9904 ft | 302 kts | 313° |
| 2026-04-18 07:54 | -4.49204 | 15.17962 | 10368 ft | 309 kts | 336° |
| 2026-04-18 07:54 | -4.47228 | 15.17378 | 10740 ft | 315 kts | 359° |
| 2026-04-18 07:54 | -4.45015 | 15.17603 | 11266 ft | 319 kts | 15° |
| 2026-04-18 07:55 | -4.42844 | 15.18288 | 11812 ft | 325 kts | 19° |
| 2026-04-18 07:55 | -4.40590 | 15.18791 | 12626 ft | 332 kts | 7° |
| 2026-04-18 07:55 | -4.38160 | 15.18912 | 13011 ft | 355 kts | 3° |
| 2026-04-18 07:55 | -4.35476 | 15.19022 | 13088 ft | 384 kts | 9° |
| 2026-04-18 07:56 | -4.32868 | 15.19815 | 13604 ft | 395 kts | 27° |
| 2026-04-18 07:56 | -4.30449 | 15.21262 | 14322 ft | 402 kts | 34° |
| 2026-04-18 07:56 | -4.28064 | 15.22817 | 15107 ft | 408 kts | 34° |
| 2026-04-18 07:56 | -4.25651 | 15.24350 | 15872 ft | 414 kts | 33° |
| 2026-04-18 07:57 | -4.23110 | 15.25809 | 16570 ft | 422 kts | 25° |
| 2026-04-18 07:57 | -4.20232 | 15.26678 | 17253 ft | 431 kts | 10° |
| 2026-04-18 07:57 | -4.17208 | 15.26755 | 17936 ft | 439 kts | 355° |
| 2026-04-18 07:57 | -4.14213 | 15.26037 | 18624 ft | 446 kts | 340° |
| 2026-04-18 07:58 | -4.09039 | 15.22358 | 19971 ft | 460 kts | 311° |
| 2026-04-18 07:58 | -4.07240 | 15.19614 | 20607 ft | 466 kts | 297° |
| 2026-04-18 07:58 | -4.06092 | 15.16531 | 21250 ft | 471 kts | 287° |
| 2026-04-18 07:59 | -4.05218 | 15.13256 | 21912 ft | 475 kts | 285° |
| 2026-04-18 07:59 | -4.04357 | 15.09751 | 22548 ft | 480 kts | 284° |
| 2026-04-18 07:59 | -4.03563 | 15.06475 | 23177 ft | 484 kts | 284° |
| 2026-04-18 07:59 | -4.02710 | 15.02958 | 23835 ft | 488 kts | 284° |
| 2026-04-18 08:00 | -4.01865 | 14.99577 | 24444 ft | 491 kts | 286° |
| 2026-04-18 08:00 | -4.00607 | 14.96196 | 24992 ft | 494 kts | 296° |
| 2026-04-18 08:00 | -3.98804 | 14.93006 | 25619 ft | 496 kts | 303° |
| 2026-04-18 08:00 | -3.96812 | 14.90118 | 26227 ft | 497 kts | 307° |
| 2026-04-18 08:01 | -3.94674 | 14.87286 | 26898 ft | 498 kts | 308° |
| 2026-04-18 08:01 | -3.92522 | 14.84546 | 27432 ft | 501 kts | 309° |
| 2026-04-18 08:01 | -3.90323 | 14.81798 | 27950 ft | 504 kts | 309° |
| 2026-04-18 08:01 | -3.88101 | 14.79040 | 28462 ft | 507 kts | 309° |
| 2026-04-18 08:02 | -3.85856 | 14.76263 | 29180 ft | 506 kts | 309° |
| 2026-04-18 08:02 | -3.83652 | 14.73540 | 29922 ft | 504 kts | 309° |
| 2026-04-18 08:02 | -3.81416 | 14.70779 | 30633 ft | 502 kts | 309° |
| 2026-04-18 08:02 | -3.79199 | 14.68042 | 31315 ft | 500 kts | 309° |
| 2026-04-18 08:03 | -3.77010 | 14.65338 | 31955 ft | 499 kts | 309° |
| 2026-04-18 08:03 | -3.74805 | 14.62616 | 32551 ft | 498 kts | 309° |
| 2026-04-18 08:03 | -3.72633 | 14.59934 | 33156 ft | 497 kts | 309° |
| 2026-04-18 08:03 | -3.70445 | 14.57237 | 33797 ft | 495 kts | 309° |
| 2026-04-18 08:04 | -3.68258 | 14.54547 | 34435 ft | 492 kts | 309° |
| 2026-04-18 08:04 | -3.66088 | 14.51878 | 35006 ft | 490 kts | 309° |
| 2026-04-18 08:04 | -3.63937 | 14.49230 | 35542 ft | 488 kts | 309° |
| 2026-04-18 08:04 | -3.61793 | 14.46592 | 35933 ft | 489 kts | 309° |
| 2026-04-18 08:05 | -3.59626 | 14.43922 | 35932 ft | 490 kts | 309° |
| 2026-04-18 08:05 | -3.55309 | 14.38603 | 35941 ft | 486 kts | 309° |
| 2026-04-18 08:06 | -3.51050 | 14.33358 | 35943 ft | 486 kts | 309° |
| 2026-04-18 08:06 | -3.46763 | 14.28079 | 35947 ft | 486 kts | 309° |
| 2026-04-18 08:07 | -3.42484 | 14.22809 | 35946 ft | 486 kts | 309° |
| 2026-04-18 08:07 | -3.38190 | 14.17519 | 35955 ft | 486 kts | 309° |
| 2026-04-18 08:08 | -3.33883 | 14.12214 | 35964 ft | 486 kts | 309° |
| 2026-04-18 08:08 | -3.29605 | 14.06945 | 35959 ft | 486 kts | 309° |
| 2026-04-18 08:09 | -3.25329 | 14.01677 | 35948 ft | 486 kts | 309° |
| 2026-04-18 08:09 | -3.21016 | 13.96365 | 35954 ft | 486 kts | 309° |
| 2026-04-18 08:10 | -3.16857 | 13.91247 | 35969 ft | 487 kts | 309° |
| 2026-04-18 08:10 | -3.12547 | 13.85952 | 35974 ft | 487 kts | 309° |
| 2026-04-18 08:11 | -3.08254 | 13.80676 | 35975 ft | 487 kts | 309° |
| 2026-04-18 08:11 | -3.03925 | 13.75355 | 35974 ft | 488 kts | 309° |
| 2026-04-18 08:12 | -2.99633 | 13.70081 | 35973 ft | 487 kts | 309° |
| 2026-04-18 08:12 | -2.95330 | 13.64789 | 35973 ft | 488 kts | 309° |
| 2026-04-18 08:13 | -2.91046 | 13.59525 | 35977 ft | 489 kts | 309° |
| 2026-04-18 08:13 | -2.86721 | 13.54207 | 35975 ft | 489 kts | 309° |
| 2026-04-18 08:14 | -2.82413 | 13.48911 | 35972 ft | 488 kts | 309° |
| 2026-04-18 08:14 | -2.78085 | 13.43589 | 35981 ft | 488 kts | 309° |
| 2026-04-18 08:15 | -2.73763 | 13.38274 | 35983 ft | 489 kts | 309° |
| 2026-04-18 08:15 | -2.70174 | 13.33861 | 35980 ft | 488 kts | 309° |
| 2026-04-18 08:16 | -2.65897 | 13.28602 | 35973 ft | 488 kts | 309° |
| 2026-04-18 08:16 | -2.61577 | 13.23299 | 35978 ft | 488 kts | 309° |
| 2026-04-18 08:17 | -2.56540 | 13.17116 | 35980 ft | 488 kts | 309° |
| 2026-04-18 08:17 | -2.52252 | 13.11850 | 35980 ft | 488 kts | 309° |
| 2026-04-18 08:18 | -2.47919 | 13.06528 | 35973 ft | 487 kts | 309° |
| 2026-04-18 08:18 | -2.43642 | 13.01255 | 35976 ft | 488 kts | 309° |
| 2026-04-18 08:19 | -2.39360 | 12.95937 | 35978 ft | 486 kts | 309° |
| 2026-04-18 08:19 | -2.35120 | 12.90677 | 35979 ft | 486 kts | 309° |
| 2026-04-18 08:20 | -2.30831 | 12.85357 | 35972 ft | 486 kts | 309° |
| 2026-04-18 08:20 | -2.26577 | 12.80083 | 35982 ft | 487 kts | 309° |
| 2026-04-18 08:21 | -2.22297 | 12.74775 | 35986 ft | 487 kts | 309° |
| 2026-04-18 08:21 | -2.18023 | 12.69474 | 35994 ft | 487 kts | 309° |
| 2026-04-18 08:22 | -2.13745 | 12.64168 | 35992 ft | 486 kts | 309° |
| 2026-04-18 08:22 | -2.09462 | 12.58857 | 35999 ft | 486 kts | 309° |
| 2026-04-18 08:23 | -2.05193 | 12.53562 | 36006 ft | 486 kts | 309° |
| 2026-04-18 08:23 | -2.00950 | 12.48299 | 36014 ft | 486 kts | 309° |
| 2026-04-18 08:24 | -1.96662 | 12.42979 | 36017 ft | 487 kts | 309° |
| 2026-04-18 08:24 | -1.92393 | 12.37685 | 36012 ft | 487 kts | 309° |
| 2026-04-18 08:25 | -1.88116 | 12.32386 | 36008 ft | 487 kts | 309° |
| 2026-04-18 08:25 | -1.83843 | 12.27092 | 36008 ft | 487 kts | 309° |
| 2026-04-18 08:26 | -1.79559 | 12.21785 | 36004 ft | 487 kts | 309° |
| 2026-04-18 08:26 | -1.75446 | 12.16688 | 36017 ft | 487 kts | 309° |
| 2026-04-18 08:27 | -1.71148 | 12.11362 | 36019 ft | 487 kts | 309° |
| 2026-04-18 08:27 | -1.66879 | 12.06072 | 36026 ft | 488 kts | 309° |
| 2026-04-18 08:28 | -1.62554 | 12.00718 | 36032 ft | 488 kts | 309° |
| 2026-04-18 08:28 | -1.58258 | 11.95398 | 36022 ft | 488 kts | 309° |
| 2026-04-18 08:29 | -1.54095 | 11.90243 | 36011 ft | 488 kts | 309° |
| 2026-04-18 08:29 | -1.49935 | 11.85093 | 36005 ft | 488 kts | 309° |
| 2026-04-18 08:30 | -1.45630 | 11.79760 | 35999 ft | 488 kts | 309° |
| 2026-04-18 08:30 | -1.41347 | 11.74457 | 35994 ft | 488 kts | 309° |
| 2026-04-18 08:31 | -1.37051 | 11.69138 | 35985 ft | 488 kts | 309° |
| 2026-04-18 08:31 | -1.32751 | 11.63818 | 35982 ft | 488 kts | 308° |
| 2026-04-18 08:32 | -1.28387 | 11.58417 | 35970 ft | 488 kts | 308° |
| 2026-04-18 08:32 | -1.24099 | 11.53111 | 35966 ft | 488 kts | 308° |
| 2026-04-18 08:33 | -1.19970 | 11.48001 | 35955 ft | 487 kts | 308° |
| 2026-04-18 08:33 | -1.15704 | 11.42719 | 35950 ft | 487 kts | 308° |
| 2026-04-18 08:34 | -1.11332 | 11.37309 | 35948 ft | 487 kts | 308° |
| 2026-04-18 08:34 | -1.06914 | 11.31843 | 35947 ft | 487 kts | 308° |
| 2026-04-18 08:35 | -1.02616 | 11.26523 | 35939 ft | 486 kts | 308° |
| 2026-04-18 08:35 | -0.98242 | 11.21105 | 35924 ft | 485 kts | 308° |
| 2026-04-18 08:36 | -0.93921 | 11.15759 | 35918 ft | 485 kts | 308° |
| 2026-04-18 08:36 | -0.89595 | 11.10405 | 35918 ft | 485 kts | 308° |
| 2026-04-18 08:37 | -0.85303 | 11.05092 | 35911 ft | 485 kts | 308° |
| 2026-04-18 08:37 | -0.81028 | 10.99803 | 35908 ft | 485 kts | 308° |
| 2026-04-18 08:38 | -0.76711 | 10.94463 | 35904 ft | 485 kts | 308° |
| 2026-04-18 08:38 | -0.72406 | 10.89135 | 35900 ft | 485 kts | 308° |
| 2026-04-18 08:39 | -0.68130 | 10.83846 | 35898 ft | 486 kts | 308° |
| 2026-04-18 08:39 | -0.63827 | 10.78524 | 35900 ft | 487 kts | 308° |
| 2026-04-18 08:40 | -0.59540 | 10.73220 | 35898 ft | 487 kts | 308° |
| 2026-04-18 08:40 | -0.55259 | 10.67924 | 35897 ft | 488 kts | 308° |
| 2026-04-18 08:41 | -0.50978 | 10.62630 | 35888 ft | 489 kts | 308° |
| 2026-04-18 08:41 | -0.46674 | 10.57305 | 35878 ft | 489 kts | 308° |
| 2026-04-18 08:42 | -0.42375 | 10.51985 | 35264 ft | 489 kts | 308° |
| 2026-04-18 08:42 | -0.40211 | 10.49307 | 34796 ft | 491 kts | 308° |
| 2026-04-18 08:42 | -0.38035 | 10.46617 | 34559 ft | 493 kts | 308° |
| 2026-04-18 08:42 | -0.35881 | 10.43953 | 34258 ft | 496 kts | 308° |
| 2026-04-18 08:43 | -0.33699 | 10.41251 | 33673 ft | 498 kts | 308° |
| 2026-04-18 08:43 | -0.31504 | 10.38536 | 32950 ft | 500 kts | 308° |
| 2026-04-18 08:43 | -0.29287 | 10.35794 | 32301 ft | 502 kts | 309° |
| 2026-04-18 08:43 | -0.27108 | 10.33096 | 31542 ft | 505 kts | 309° |
| 2026-04-18 08:44 | -0.24854 | 10.30310 | 30719 ft | 507 kts | 309° |
| 2026-04-18 08:44 | -0.22631 | 10.27563 | 29867 ft | 508 kts | 309° |
| 2026-04-18 08:44 | -0.20416 | 10.24833 | 29018 ft | 509 kts | 308° |
| 2026-04-18 08:44 | -0.18155 | 10.22036 | 28136 ft | 510 kts | 308° |
| 2026-04-18 08:45 | -0.15882 | 10.19216 | 27248 ft | 511 kts | 308° |
| 2026-04-18 08:45 | -0.13614 | 10.16404 | 26338 ft | 513 kts | 309° |
| 2026-04-18 08:45 | -0.12108 | 10.14538 | 25621 ft | 514 kts | 309° |
| 2026-04-18 08:45 | -0.09091 | 10.10805 | 24411 ft | 513 kts | 309° |
| 2026-04-18 08:46 | -0.06837 | 10.08017 | 23651 ft | 507 kts | 310° |
| 2026-04-18 08:46 | -0.04618 | 10.05274 | 22942 ft | 499 kts | 310° |
| 2026-04-18 08:46 | -0.02438 | 10.02578 | 22173 ft | 494 kts | 310° |
| 2026-04-18 08:46 | -0.00231 | 9.99851 | 21377 ft | 488 kts | 310° |
| 2026-04-18 08:47 | 0.01896 | 9.97221 | 20610 ft | 483 kts | 310° |
| 2026-04-18 08:47 | 0.04031 | 9.94582 | 19828 ft | 478 kts | 310° |
| 2026-04-18 08:47 | 0.06110 | 9.92009 | 19108 ft | 469 kts | 310° |
| 2026-04-18 08:47 | 0.08158 | 9.89473 | 18386 ft | 450 kts | 310° |
| 2026-04-18 08:48 | 0.10109 | 9.87057 | 17864 ft | 428 kts | 310° |
| 2026-04-18 08:48 | 0.11939 | 9.84792 | 17514 ft | 404 kts | 310° |
| 2026-04-18 08:48 | 0.13679 | 9.82638 | 17277 ft | 380 kts | 311° |
| 2026-04-18 08:48 | 0.15286 | 9.80649 | 17089 ft | 359 kts | 311° |
| 2026-04-18 08:49 | 0.16855 | 9.78711 | 16754 ft | 347 kts | 311° |
| 2026-04-18 08:49 | 0.18372 | 9.76833 | 16400 ft | 342 kts | 311° |
| 2026-04-18 08:49 | 0.19879 | 9.74971 | 15947 ft | 340 kts | 311° |
| 2026-04-18 08:49 | 0.21366 | 9.73134 | 15519 ft | 338 kts | 312° |
| 2026-04-18 08:50 | 0.22868 | 9.71274 | 15072 ft | 335 kts | 312° |
| 2026-04-18 08:50 | 0.24342 | 9.69450 | 14647 ft | 333 kts | 312° |
| 2026-04-18 08:50 | 0.25790 | 9.67657 | 14209 ft | 330 kts | 312° |
| 2026-04-18 08:50 | 0.27258 | 9.65844 | 13779 ft | 328 kts | 312° |
| 2026-04-18 08:51 | 0.28687 | 9.64075 | 13341 ft | 326 kts | 313° |
| 2026-04-18 08:51 | 0.30124 | 9.62297 | 12911 ft | 324 kts | 313° |
| 2026-04-18 08:51 | 0.31565 | 9.60560 | 12490 ft | 319 kts | 318° |
| 2026-04-18 08:51 | 0.33260 | 9.59176 | 12274 ft | 298 kts | 335° |
| 2026-04-18 08:52 | 0.35125 | 9.58381 | 11923 ft | 281 kts | 347° |
| 2026-04-18 08:52 | 0.36982 | 9.57809 | 11618 ft | 272 kts | 348° |
| 2026-04-18 08:52 | 0.38796 | 9.57238 | 11184 ft | 267 kts | 349° |
| 2026-04-18 08:52 | 0.40647 | 9.57003 | 10590 ft | 256 kts | 9° |
| 2026-04-18 08:53 | 0.42358 | 9.57422 | 9969 ft | 248 kts | 24° |
| 2026-04-18 08:53 | 0.43942 | 9.57955 | 9423 ft | 247 kts | 20° |
| 2026-04-18 08:53 | 0.45662 | 9.58348 | 8807 ft | 248 kts | 13° |
| 2026-04-18 08:53 | 0.47413 | 9.58536 | 8230 ft | 247 kts | 6° |
| 2026-04-18 08:54 | 0.49152 | 9.58532 | 7828 ft | 239 kts | 0° |
| 2026-04-18 08:54 | 0.50885 | 9.58353 | 7367 ft | 233 kts | 354° |
| 2026-04-18 08:54 | 0.52440 | 9.58039 | 7123 ft | 221 kts | 349° |
| 2026-04-18 08:54 | 0.53949 | 9.57594 | 7000 ft | 214 kts | 344° |
| 2026-04-18 08:55 | 0.55364 | 9.57049 | 6919 ft | 215 kts | 340° |
| 2026-04-18 08:55 | 0.56788 | 9.56360 | 6786 ft | 218 kts | 334° |
| 2026-04-18 08:55 | 0.58165 | 9.55539 | 6613 ft | 227 kts | 329° |
| 2026-04-18 08:55 | 0.59479 | 9.54592 | 6354 ft | 230 kts | 324° |
| 2026-04-18 08:56 | 0.60704 | 9.53536 | 6027 ft | 228 kts | 319° |
| 2026-04-18 08:56 | 0.61463 | 9.52778 | 5831 ft | 227 kts | 315° |
| 2026-04-18 08:56 | 0.62825 | 9.51155 | 5497 ft | 226 kts | 308° |
| 2026-04-18 08:56 | 0.63433 | 9.50287 | 5340 ft | 226 kts | 305° |
| 2026-04-18 08:57 | 0.64943 | 9.47499 | 4880 ft | 225 kts | 295° |
| 2026-04-18 08:57 | 0.65668 | 9.45527 | 4569 ft | 224 kts | 288° |
| 2026-04-18 08:57 | 0.66062 | 9.44003 | 4333 ft | 223 kts | 283° |
| 2026-04-18 08:58 | 0.66324 | 9.42438 | 4093 ft | 222 kts | 278° |
| 2026-04-18 08:58 | 0.66450 | 9.40886 | 3855 ft | 220 kts | 272° |
| 2026-04-18 08:58 | 0.66441 | 9.39349 | 3621 ft | 218 kts | 268° |
| 2026-04-18 08:58 | 0.66308 | 9.37849 | 3449 ft | 208 kts | 263° |
| 2026-04-18 08:59 | 0.66065 | 9.36429 | 3431 ft | 205 kts | 259° |
| 2026-04-18 08:59 | 0.65654 | 9.34994 | 3183 ft | 207 kts | 242° |
| 2026-04-18 08:59 | 0.64653 | 9.34009 | 3036 ft | 203 kts | 203° |
| 2026-04-18 08:59 | 0.63237 | 9.33765 | 2964 ft | 205 kts | 178° |
| 2026-04-18 09:00 | 0.61803 | 9.33930 | 2756 ft | 208 kts | 167° |
| 2026-04-18 09:00 | 0.60395 | 9.34345 | 2466 ft | 206 kts | 159° |
| 2026-04-18 09:00 | 0.59093 | 9.34875 | 2169 ft | 191 kts | 155° |
| 2026-04-18 09:00 | 0.57906 | 9.35418 | 1986 ft | 179 kts | 154° |
| 2026-04-18 09:01 | 0.56774 | 9.35953 | 1909 ft | 172 kts | 154° |
| 2026-04-18 09:01 | 0.55695 | 9.36470 | 1842 ft | 170 kts | 154° |
| 2026-04-18 09:01 | 0.54613 | 9.36989 | 1606 ft | 169 kts | 154° |
| 2026-04-18 09:01 | 0.53559 | 9.37496 | 1413 ft | 167 kts | 154° |
| 2026-04-18 09:02 | 0.52490 | 9.38011 | 1204 ft | 168 kts | 154° |
| 2026-04-18 09:02 | 0.51433 | 9.38522 | 981 ft | 167 kts | 153° |
| 2026-04-18 09:02 | 0.50370 | 9.39035 | 766 ft | 167 kts | 153° |
| 2026-04-18 09:02 | 0.49327 | 9.39541 | 528 ft | 166 kts | 153° |
| 2026-04-18 09:03 | 0.48270 | 9.40059 | 321 ft | 166 kts | 154° |
| 2026-04-18 09:03 | 0.47222 | 9.40563 | 99 ft | 165 kts | 154° |
| 2026-04-18 09:03 | 0.46337 | 9.40995 | 62 ft | 100 kts | 153° |
| 2026-04-18 09:03 | 0.45810 | 9.41253 | 58 ft | 61 kts | 152° |
| 2026-04-18 09:04 | 0.45644 | 9.41302 | 58 ft | 15 kts | 213° |
| 2026-04-18 09:04 | 0.45599 | 9.41262 | 57 ft | 2 kts | 214° |
| 2026-04-18 09:04 | 0.45574 | 9.41253 | 57 ft | 5 kts | 184° |
| 2026-04-18 09:04 | 0.45522 | 9.41265 | 57 ft | 9 kts | 158° |
| 2026-04-18 09:05 | 0.45491 | 9.41274 | 57 ft | 1 kts | 184° |
| 2026-04-18 09:05 | 0.45480 | 9.41271 | 57 ft | 2 kts | 205° |
| 2026-04-18 09:05 | 0.45450 | 9.41249 | 57 ft | 6 kts | 219° |
| 2026-04-18 09:05 | 0.45426 | 9.41228 | 57 ft | 1 kts | 221° |
| 2026-04-18 09:06 | 0.45420 | 9.41224 | 57 ft | 0 kts | 219° |